Time;durP1;ratioP1;P1;durP2;ratioP2;P2;SDS_P1;SDS_P2;PMS_P1;PMS_P2;Temp;Humidity;BMP_temperature;BMP_pressure;BME280_temperature;BME280_humidity;BME280_pressure;Samples;Min_cycle;Max_cycle;Signal;HPM_P1;HPM_P2
2022/06/23 00:01:19;;;;;;;11.25;5.78;;;;;;;17.37;65.64;101093.13;5029502;28;20037;-68
2022/06/23 00:03:48;;;;;;;10.32;5.03;;;;;;;17.37;66.44;101087.72;5029501;28;20073;-68
2022/06/23 00:06:36;;;;;;;30.70;6.10;;;;;;;17.34;66.80;101084.66;5029435;28;20029;-68
2022/06/23 00:09:27;;;;;;;9.88;5.07;;;;;;;17.32;66.71;101087.63;5028696;28;20136;-68
2022/06/23 00:11:52;;;;;;;11.95;6.03;;;;;;;17.28;68.20;101083.75;5029022;28;20033;-68
2022/06/23 00:14:18;;;;;;;11.48;6.22;;;;;;;17.26;68.76;101083.16;5028948;28;20564;-68
2022/06/23 00:16:44;;;;;;;9.57;6.00;;;;;;;17.21;69.22;101073.09;5029486;28;20029;-68
2022/06/23 00:19:14;;;;;;;13.30;6.25;;;;;;;17.19;69.77;101074.38;5028026;28;20385;-68
2022/06/23 00:21:43;;;;;;;11.77;6.45;;;;;;;17.15;70.15;101075.91;5029056;28;20021;-68
2022/06/23 00:24:17;;;;;;;12.38;5.70;;;;;;;17.06;70.54;101070.03;5028550;28;20029;-68
2022/06/23 00:26:43;;;;;;;12.50;5.85;;;;;;;17.11;71.45;101078.25;5028995;28;20034;-68
2022/06/23 00:29:15;;;;;;;14.38;6.07;;;;;;;17.05;71.42;101077.28;5029321;28;20047;-68
2022/06/23 00:31:45;;;;;;;13.82;5.95;;;;;;;17.05;71.72;101079.16;5029265;28;20029;-68
2022/06/23 00:34:34;;;;;;;10.50;6.07;;;;;;;17.04;71.78;101072.16;5029071;28;20047;-68
2022/06/23 00:37:13;;;;;;;12.10;7.10;;;;;;;17.01;72.55;101080.72;5029153;28;20028;-68
2022/06/23 00:39:56;;;;;;;12.75;6.45;;;;;;;16.91;72.50;101065.09;5029193;28;20033;-68
2022/06/23 00:42:37;;;;;;;15.55;7.63;;;;;;;16.93;73.91;101075.66;5029109;28;20033;-68
2022/06/23 00:45:11;;;;;;;13.32;7.28;;;;;;;16.95;73.90;101073.53;5029038;28;20084;-68
2022/06/23 00:47:51;;;;;;;10.45;6.10;;;;;;;16.92;74.09;101080.22;5028933;28;20030;-68
2022/06/23 00:50:37;;;;;;;12.20;7.95;;;;;;;16.89;73.90;101078.00;5028654;28;20057;-68
2022/06/23 00:53:15;;;;;;;16.85;5.95;;;;;;;16.84;74.88;101072.47;5028675;28;20094;-68
2022/06/23 00:55:59;;;;;;;14.10;6.90;;;;;;;16.84;74.78;101073.28;5028584;28;20477;-68
2022/06/23 00:58:53;;;;;;;12.18;6.13;;;;;;;16.82;75.31;101071.88;5028665;28;20025;-68
2022/06/23 01:01:31;;;;;;;13.40;6.68;;;;;;;16.79;75.54;101070.50;5029296;28;20065;-68
2022/06/23 01:04:37;;;;;;;11.07;6.38;;;;;;;16.73;75.74;101068.69;5028781;28;20823;-68
2022/06/23 01:07:36;;;;;;;15.05;6.72;;;;;;;16.71;75.74;101068.09;5025595;28;20072;-68
2022/06/23 01:10:36;;;;;;;10.88;6.10;;;;;;;16.67;76.42;101079.59;5030932;28;20025;-68
2022/06/23 01:13:11;;;;;;;12.57;6.95;;;;;;;16.66;77.19;101073.34;5027721;28;20064;-68
2022/06/23 01:15:42;;;;;;;12.63;7.10;;;;;;;16.61;77.39;101057.91;5031700;28;20048;-68
2022/06/23 01:18:19;;;;;;;22.60;8.05;;;;;;;16.58;77.89;101060.22;5032499;28;20393;-69
2022/06/23 01:20:54;;;;;;;14.35;7.22;;;;;;;16.55;78.16;101058.00;5032177;28;20029;-68
2022/06/23 01:23:22;;;;;;;17.30;8.05;;;;;;;16.53;78.13;101055.56;5032361;28;20022;-68
2022/06/23 01:26:07;;;;;;;14.57;8.15;;;;;;;16.46;78.21;101035.16;5032337;28;20025;-68
2022/06/23 01:28:41;;;;;;;14.48;7.30;;;;;;;16.50;78.06;101047.91;5032085;28;20030;-68
2022/06/23 01:31:14;;;;;;;15.82;8.40;;;;;;;16.46;78.00;101041.38;5032044;28;20029;-68
2022/06/23 01:33:51;;;;;;;16.52;8.85;;;;;;;16.46;78.65;101049.44;5032057;28;20068;-68
2022/06/23 01:36:38;;;;;;;13.70;7.88;;;;;;;16.46;77.90;101049.44;5032032;28;20044;-68
2022/06/23 01:39:24;;;;;;;15.45;7.47;;;;;;;16.42;77.55;101053.63;5031985;28;20030;-68
2022/06/23 01:41:58;;;;;;;14.73;7.53;;;;;;;16.42;78.37;101048.25;5030675;28;20021;-68
2022/06/23 01:44:59;;;;;;;20.08;8.27;;;;;;;16.41;77.85;101052.00;5031927;28;20029;-68
2022/06/23 01:47:47;;;;;;;12.63;6.68;;;;;;;16.40;77.54;101053.88;5031927;28;20034;-68
2022/06/23 01:50:12;;;;;;;15.60;8.35;;;;;;;16.39;78.62;101049.53;5031361;28;20059;-68
2022/06/23 01:52:38;;;;;;;15.77;8.40;;;;;;;16.38;78.52;101057.84;5031716;28;20056;-68
2022/06/23 01:55:15;;;;;;;14.20;7.55;;;;;;;16.37;77.94;101058.88;5031725;28;20382;-68
2022/06/23 01:57:55;;;;;;;11.88;6.97;;;;;;;16.40;77.77;101055.72;5031767;28;20021;-68
2022/06/23 02:00:24;;;;;;;16.40;8.10;;;;;;;16.41;77.80;101050.13;5031557;28;20051;-68
2022/06/23 02:02:58;;;;;;;16.30;7.07;;;;;;;16.43;78.15;101052.59;5031379;28;20044;-68
2022/06/23 02:05:45;;;;;;;13.27;7.30;;;;;;;16.44;77.06;101046.16;5031569;28;20049;-68
2022/06/23 02:08:19;;;;;;;18.92;8.73;;;;;;;16.42;77.65;101054.44;5031549;28;20029;-68
2022/06/23 02:10:49;;;;;;;13.75;7.75;;;;;;;16.39;77.84;101052.22;5031401;28;20037;-68
2022/06/23 02:13:32;;;;;;;15.85;7.68;;;;;;;16.37;77.56;101050.81;5030716;28;20535;-68
2022/06/23 02:16:24;;;;;;;13.07;6.75;;;;;;;16.31;77.14;101049.88;5030728;28;20033;-67
2022/06/23 02:18:58;;;;;;;14.32;7.18;;;;;;;16.29;78.18;101048.44;5030963;28;20025;-67
2022/06/23 02:21:35;;;;;;;12.15;6.72;;;;;;;16.21;77.92;101047.72;5030434;28;20175;-68
2022/06/23 02:24:21;;;;;;;15.02;7.90;;;;;;;16.20;78.12;101051.47;5031283;28;20029;-68
2022/06/23 02:27:11;;;;;;;14.30;7.78;;;;;;;16.17;77.25;101054.63;5031076;28;20028;-68
2022/06/23 02:29:45;;;;;;;12.85;7.43;;;;;;;16.11;78.07;101052.88;5031114;28;20029;-68
2022/06/23 02:32:11;;;;;;;13.10;7.50;;;;;;;16.11;78.06;101054.72;5031076;28;20028;-68
2022/06/23 02:35:18;;;;;;;15.50;8.30;;;;;;;16.10;77.57;101045.81;5030997;28;20030;-68
2022/06/23 02:38:09;;;;;;;15.35;8.30;;;;;;;16.07;77.80;101046.28;5030922;28;20267;-68
2022/06/23 02:40:38;;;;;;;15.45;7.50;;;;;;;16.03;78.18;101053.16;5031009;28;20091;-68
2022/06/23 02:43:13;;;;;;;13.88;8.13;;;;;;;15.98;77.47;101045.78;5030895;28;20112;-68
2022/06/23 02:46:16;;;;;;;14.80;7.55;;;;;;;15.95;77.74;101045.41;5030492;28;20047;-68
2022/06/23 02:49:10;;;;;;;14.23;7.43;;;;;;;15.92;78.03;101043.19;5029415;28;20436;-68
2022/06/23 02:51:57;;;;;;;15.57;8.25;;;;;;;15.90;77.44;101046.09;5010754;28;20049;-68
2022/06/23 02:55:02;;;;;;;14.50;7.78;;;;;;;15.89;77.39;101039.06;5030611;28;20430;-68
2022/06/23 02:57:48;;;;;;;14.20;7.03;;;;;;;15.86;77.34;101036.84;5030369;28;20031;-68
2022/06/23 03:00:22;;;;;;;15.77;7.75;;;;;;;15.84;77.55;101040.81;5030368;28;20128;-68
2022/06/23 03:03:07;;;;;;;13.65;6.78;;;;;;;15.82;76.70;101037.50;5030373;28;20530;-68
2022/06/23 03:05:32;;;;;;;16.10;7.47;;;;;;;15.82;77.20;101024.88;5028940;28;20532;-68
2022/06/23 03:08:06;;;;;;;16.20;6.60;;;;;;;15.77;76.94;101022.91;5030304;28;20055;-68
2022/06/23 03:10:45;;;;;;;13.65;7.63;;;;;;;15.83;76.84;101025.72;5030266;28;20279;-68
2022/06/23 03:13:26;;;;;;;12.75;7.85;;;;;;;15.86;76.70;101031.47;5030190;28;20079;-68
2022/06/23 03:16:19;;;;;;;15.80;7.78;;;;;;;15.86;76.35;101023.38;5029420;28;20401;-68
2022/06/23 03:19:02;;;;;;;11.95;6.75;;;;;;;15.84;76.11;101019.28;5029351;28;20511;-68
2022/06/23 03:21:41;;;;;;;11.30;6.60;;;;;;;15.81;76.26;101017.88;5029777;28;20055;-68
2022/06/23 03:24:22;;;;;;;10.82;6.60;;;;;;;15.80;76.14;101020.78;5029944;28;20053;-68
2022/06/23 03:26:55;;;;;;;11.35;6.30;;;;;;;15.81;75.76;101019.75;5029962;28;20034;-68
2022/06/23 03:29:28;;;;;;;13.82;7.65;;;;;;;15.81;75.89;101025.13;5030052;28;20782;-68
2022/06/23 03:32:16;;;;;;;28.13;8.35;;;;;;;15.78;75.96;101019.16;5029982;28;20133;-67
2022/06/23 03:34:54;;;;;;;13.25;7.07;;;;;;;15.78;76.08;101018.31;5029729;28;20374;-68
2022/06/23 03:37:54;;;;;;;12.75;6.82;;;;;;;15.74;75.71;101015.25;5030009;28;20388;-68
2022/06/23 03:43:50;;;;;;;17.38;8.32;;;;;;;15.77;75.26;101019.34;5029799;28;20443;-68
2022/06/23 03:46:23;;;;;;;13.80;7.53;;;;;;;15.76;75.53;101015.03;5030005;28;20037;-68
2022/06/23 03:49:08;;;;;;;12.50;7.15;;;;;;;15.74;75.82;101003.69;5029702;28;20033;-68
2022/06/23 03:51:56;;;;;;;12.38;7.13;;;;;;;15.77;75.43;101013.97;5029332;28;20079;-68
2022/06/23 03:54:33;;;;;;;13.57;7.25;;;;;;;15.79;75.73;101009.19;5029487;28;20500;-68
2022/06/23 03:57:07;;;;;;;13.27;7.00;;;;;;;15.82;75.92;101018.69;5029463;28;20060;-68
2022/06/23 03:59:51;;;;;;;13.02;7.45;;;;;;;15.86;75.29;101022.56;5029502;28;20033;-68
2022/06/23 04:02:25;;;;;;;10.15;6.53;;;;;;;15.85;75.24;101027.13;5029512;28;20033;-68
2022/06/23 04:05:08;;;;;;;12.27;5.97;;;;;;;15.88;74.84;101031.25;5028884;28;20067;-68
2022/06/23 04:07:49;;;;;;;12.93;7.80;;;;;;;15.91;74.79;101030.78;5028944;28;20037;-68
2022/06/23 04:10:24;;;;;;;11.30;6.70;;;;;;;15.93;75.01;101028.69;5029435;28;20368;-67
2022/06/23 04:12:53;;;;;;;13.32;6.97;;;;;;;15.96;75.18;101028.22;5029382;28;20283;-67
2022/06/23 04:15:27;;;;;;;13.07;6.90;;;;;;;16.02;75.10;101021.13;5029379;28;20042;-67
2022/06/23 04:17:58;;;;;;;13.32;7.45;;;;;;;15.98;75.56;101015.34;5028701;28;20034;-67
2022/06/23 04:20:36;;;;;;;14.85;8.10;;;;;;;16.07;74.62;101008.63;5029019;28;20029;-67
2022/06/23 04:23:06;;;;;;;15.90;7.20;;;;;;;16.16;73.59;101030.63;5029179;28;20038;-68
2022/06/23 04:25:39;;;;;;;17.23;7.75;;;;;;;16.19;74.02;101012.16;5029233;28;20025;-67
2022/06/23 04:28:04;;;;;;;13.80;7.75;;;;;;;16.24;74.43;101027.59;5029161;28;20036;-68
2022/06/23 04:30:36;;;;;;;14.05;7.28;;;;;;;16.31;73.23;101032.91;5029182;28;20857;-67
2022/06/23 04:33:05;;;;;;;15.57;8.57;;;;;;;16.29;73.76;101027.75;5029190;28;20488;-68
2022/06/23 04:35:41;;;;;;;11.57;6.55;;;;;;;16.30;73.39;101029.41;5029103;28;20021;-67
2022/06/23 04:38:09;;;;;;;13.85;6.95;;;;;;;16.36;72.93;101033.03;5029195;28;20037;-68
2022/06/23 04:40:48;;;;;;;13.90;8.07;;;;;;;16.42;73.00;101029.41;5029061;28;20029;-65
2022/06/23 04:43:33;;;;;;;11.63;6.90;;;;;;;16.63;72.58;101023.47;5029049;28;20037;-64
2022/06/23 04:46:16;;;;;;;14.73;6.93;;;;;;;16.78;71.93;101024.94;5033033;28;20029;-64
2022/06/23 04:48:58;;;;;;;15.63;8.23;;;;;;;16.78;72.08;101023.06;5032956;28;20017;-65
2022/06/23 04:51:39;;;;;;;13.75;8.80;;;;;;;16.72;71.60;101013.19;5032537;28;20064;-65
2022/06/23 04:54:10;;;;;;;15.95;7.82;;;;;;;16.70;71.77;101017.97;5032859;28;20083;-65
2022/06/23 04:56:44;;;;;;;13.25;6.70;;;;;;;16.68;72.27;101024.66;5031884;28;20037;-64
2022/06/23 04:59:19;;;;;;;12.85;8.23;;;;;;;16.73;72.09;101028.28;5032705;28;20426;-65
2022/06/23 05:01:47;;;;;;;14.38;8.40;;;;;;;16.75;71.23;101015.41;5032653;28;20041;-65
2022/06/23 05:04:25;;;;;;;15.68;8.85;;;;;;;16.86;71.55;101030.78;5032718;28;20029;-64
2022/06/23 05:06:55;;;;;;;15.88;7.68;;;;;;;16.92;71.13;101017.44;5032543;28;20029;-65
2022/06/23 05:09:40;;;;;;;17.27;8.13;;;;;;;17.18;70.37;101035.81;5032656;28;20029;-65
2022/06/23 05:12:21;;;;;;;15.73;7.90;;;;;;;17.52;68.98;101025.19;5032062;28;20037;-64
2022/06/23 05:14:57;;;;;;;18.20;9.02;;;;;;;17.54;69.07;101033.88;5032320;28;20480;-64
2022/06/23 05:17:28;;;;;;;17.75;8.15;;;;;;;17.48;68.73;101024.88;5032311;28;20095;-65
2022/06/23 05:19:57;;;;;;;12.55;7.38;;;;;;;17.45;69.12;101029.94;5030537;28;20057;-65
2022/06/23 05:22:51;;;;;;;13.35;7.28;;;;;;;17.51;67.63;101029.78;5032009;28;20400;-65
2022/06/23 05:25:43;;;;;;;19.05;8.77;;;;;;;17.61;68.06;101023.78;5030874;28;20038;-65
2022/06/23 05:28:16;;;;;;;14.60;7.72;;;;;;;17.66;68.04;101021.19;5032346;28;20029;-64
2022/06/23 05:30:50;;;;;;;20.65;7.80;;;;;;;17.76;68.94;101031.34;5032039;28;20057;-65
2022/06/23 05:33:21;;;;;;;16.13;8.20;;;;;;;17.80;68.65;101040.63;5032094;28;20025;-65
2022/06/23 05:35:50;;;;;;;10.15;7.00;;;;;;;17.86;66.80;101036.16;5032094;28;20484;-64
2022/06/23 05:38:35;;;;;;;11.45;6.43;;;;;;;17.92;67.39;101032.47;5032072;28;20029;-64
2022/06/23 05:41:11;;;;;;;10.93;6.47;;;;;;;18.04;67.46;101032.44;5031801;28;20036;-65
2022/06/23 05:43:40;;;;;;;15.75;6.97;;;;;;;18.18;65.83;101026.50;5032083;28;20037;-65
2022/06/23 05:46:06;;;;;;;15.88;7.25;;;;;;;18.23;66.80;101027.66;5032060;28;20033;-65
2022/06/23 05:48:43;;;;;;;12.63;6.50;;;;;;;18.31;66.85;101038.03;5031852;28;20029;-64
2022/06/23 05:51:11;;;;;;;12.65;6.45;;;;;;;18.40;66.55;101028.50;5031705;28;20526;-64
2022/06/23 05:53:44;;;;;;;12.88;7.75;;;;;;;18.43;65.66;101022.59;5031673;28;20072;-65
2022/06/23 05:56:23;;;;;;;13.00;7.18;;;;;;;18.49;66.48;101016.22;5030626;28;20053;-64
2022/06/23 05:59:14;;;;;;;12.65;7.95;;;;;;;18.62;66.16;101018.59;5030401;28;20410;-64
2022/06/23 06:02:05;;;;;;;14.70;7.32;;;;;;;18.92;65.71;101028.28;5031679;28;20107;-65
2022/06/23 06:04:37;;;;;;;9.48;6.40;;;;;;;19.26;63.34;101033.63;5031711;28;20115;-65
2022/06/23 06:07:03;;;;;;;14.57;6.97;;;;;;;19.50;62.32;101026.06;5031571;28;20473;-64
2022/06/23 06:09:36;;;;;;;13.18;6.57;;;;;;;19.52;61.13;101015.81;5031500;28;20041;-65
2022/06/23 06:12:28;;;;;;;9.77;6.35;;;;;;;19.50;62.42;101028.78;5031593;28;21038;-65
2022/06/23 06:15:07;;;;;;;;;;;;;;;19.45;63.20;101026.81;5031785;28;20377;-65
2022/06/23 06:17:35;;;;;;;12.50;7.57;;;;;;;19.40;62.42;101026.75;5031295;28;19968;-65
2022/06/23 06:20:07;;;;;;;14.10;6.88;;;;;;;19.40;62.33;101021.34;5031311;28;20021;-65
2022/06/23 06:23:01;;;;;;;10.95;6.60;;;;;;;19.37;62.71;101019.16;5031165;28;20063;-64
2022/06/23 06:25:40;;;;;;;11.48;6.63;;;;;;;19.36;63.45;101017.53;5031387;28;20056;-65
2022/06/23 06:28:31;;;;;;;11.82;6.97;;;;;;;19.37;62.79;101023.75;5030826;28;20420;-65
2022/06/23 06:31:04;;;;;;;10.82;7.03;;;;;;;19.36;63.28;101030.22;5031048;28;20361;-65
2022/06/23 06:33:39;;;;;;;10.65;6.57;;;;;;;19.40;63.86;101028.66;5030976;28;20469;-65
2022/06/23 06:36:38;;;;;;;12.05;6.15;;;;;;;19.42;63.02;101018.41;5030881;28;20502;-65
2022/06/23 06:39:12;;;;;;;11.38;6.65;;;;;;;19.48;62.53;101029.03;5030896;28;20036;-65
2022/06/23 06:41:41;;;;;;;11.52;7.78;;;;;;;19.51;63.14;101025.00;5030754;28;20532;-65
2022/06/23 06:44:08;;;;;;;13.68;7.78;;;;;;;19.61;63.77;101024.31;5030822;28;20495;-65
2022/06/23 06:46:36;;;;;;;12.63;6.57;;;;;;;19.68;64.38;101016.84;5030880;28;20034;-65
2022/06/23 06:49:01;;;;;;;14.25;7.22;;;;;;;19.74;63.93;101023.94;5028137;28;20029;-64
2022/06/23 06:51:29;;;;;;;11.32;6.65;;;;;;;19.79;63.71;101021.31;5026063;28;20064;-64
2022/06/23 06:54:01;;;;;;;10.90;6.50;;;;;;;19.84;63.08;101010.53;5026254;28;20476;-63
2022/06/23 06:56:40;;;;;;;11.02;6.95;;;;;;;19.92;63.77;101015.47;5025724;28;20022;-65
2022/06/23 06:59:28;;;;;;;12.13;6.32;;;;;;;20.01;64.16;101023.16;5026043;28;20155;-65
2022/06/23 07:02:03;;;;;;;13.55;7.00;;;;;;;20.04;63.20;101019.91;5024314;28;20530;-65
2022/06/23 07:04:38;;;;;;;14.50;7.65;;;;;;;20.14;63.37;101028.97;5025697;28;20514;-65
2022/06/23 07:07:08;;;;;;;9.98;6.10;;;;;;;20.20;62.92;101027.13;5026098;28;20026;-65
2022/06/23 07:10:03;;;;;;;12.57;7.95;;;;;;;20.27;63.09;101035.03;5026065;28;20021;-65
2022/06/23 07:12:40;;;;;;;12.68;6.88;;;;;;;20.31;63.81;101020.72;5017479;28;20060;-65
2022/06/23 07:15:21;;;;;;;12.50;7.43;;;;;;;20.42;62.72;101031.66;5026217;28;20063;-64
2022/06/23 07:17:57;;;;;;;15.55;7.88;;;;;;;20.45;63.12;101025.72;5025859;28;20036;-64
2022/06/23 07:20:28;;;;;;;11.50;7.07;;;;;;;20.54;62.91;101022.31;5025427;28;20159;-63
2022/06/23 07:23:12;;;;;;;16.27;7.85;;;;;;;20.65;63.17;101027.81;5025785;28;20100;-64
2022/06/23 07:25:56;;;;;;;13.95;7.88;;;;;;;20.72;63.14;101028.38;5025357;28;20024;-64
2022/06/23 07:28:40;;;;;;;14.23;8.23;;;;;;;20.83;62.63;101040.97;5026211;28;20067;-65
2022/06/23 07:31:31;;;;;;;13.77;7.38;;;;;;;20.94;62.90;101033.72;5029901;28;20409;-64
2022/06/23 07:34:05;;;;;;;11.20;7.75;;;;;;;21.02;62.40;101036.75;5029820;28;20034;-64
2022/06/23 07:36:35;;;;;;;16.40;8.65;;;;;;;21.13;63.08;101034.09;5029615;28;20431;-64
2022/06/23 07:39:26;;;;;;;14.43;8.63;;;;;;;21.21;63.19;101039.81;5029508;28;20112;-64
2022/06/23 07:42:01;;;;;;;14.35;7.70;;;;;;;21.30;63.89;101039.31;5029433;28;20504;-64
2022/06/23 07:44:37;;;;;;;16.55;8.70;;;;;;;21.39;62.65;101029.66;5029958;28;20088;-65
2022/06/23 07:47:03;;;;;;;14.80;8.77;;;;;;;21.49;62.24;101032.41;5029706;28;20041;-65
2022/06/23 07:49:31;;;;;;;14.07;8.52;;;;;;;21.61;63.16;101024.03;5029483;28;20075;-65
2022/06/23 07:51:57;;;;;;;14.30;8.65;;;;;;;21.67;62.19;101023.78;5029523;28;20377;-65
2022/06/23 07:54:24;;;;;;;14.15;8.77;;;;;;;21.77;63.40;101019.44;5029359;28;20037;-65
2022/06/23 07:56:51;;;;;;;15.88;8.93;;;;;;;21.83;63.30;101011.06;5029140;28;20029;-65
2022/06/23 07:59:19;;;;;;;21.17;9.77;;;;;;;21.97;63.06;101018.69;5029431;28;20029;-65
2022/06/23 08:02:23;;;;;;;16.88;7.93;;;;;;;22.12;63.50;101015.19;5029425;28;20124;-65
2022/06/23 08:05:03;;;;;;;13.90;9.27;;;;;;;22.39;61.85;101020.41;5007060;28;20030;-65
2022/06/23 08:07:29;;;;;;;15.48;8.65;;;;;;;22.76;60.64;101006.50;4988109;28;20563;-65
2022/06/23 08:10:03;;;;;;;15.25;8.50;;;;;;;24.18;57.57;101011.63;5019646;28;20087;-65
2022/06/23 08:12:58;;;;;;;14.57;8.77;;;;;;;25.91;54.71;101005.44;5029457;28;20370;-65
2022/06/23 08:18:35;;;;;;;;;;;;;;;29.40;50.00;101014.06;5029031;28;20097;-69
2022/06/23 08:21:16;;;;;;;13.73;8.57;;;;;;;30.71;44.47;101003.84;5028885;28;19956;-69
2022/06/23 08:24:07;;;;;;;19.15;10.10;;;;;;;31.84;41.75;101005.19;5028444;28;20032;-69
2022/06/23 08:26:35;;;;;;;19.08;9.77;;;;;;;32.86;36.79;101005.66;5026139;28;20053;-69
2022/06/23 08:29:07;;;;;;;16.30;8.98;;;;;;;33.78;35.85;101005.00;5028913;28;20030;-70
2022/06/23 08:31:32;;;;;;;;;;;;;;;34.99;40.58;101005.84;5029398;28;20021;-69
2022/06/23 08:33:58;;;;;;;14.30;7.80;;;;;;;35.59;32.58;101000.16;5028051;28;19924;-70
2022/06/23 08:36:36;;;;;;;13.77;8.05;;;;;;;36.10;32.26;101003.56;5027478;28;20298;-70
2022/06/23 08:39:12;;;;;;;12.93;7.75;;;;;;;36.74;31.15;101006.75;5029152;28;20025;-70
2022/06/23 08:41:46;;;;;;;13.00;7.38;;;;;;;37.05;31.23;101000.13;5029182;28;20040;-70
2022/06/23 08:44:23;;;;;;;13.75;7.10;;;;;;;37.37;30.72;101005.34;5029182;28;20033;-70
2022/06/23 08:47:09;;;;;;;11.88;6.85;;;;;;;37.91;31.93;101006.03;5029267;28;20048;-70
2022/06/23 08:49:54;;;;;;;12.00;8.23;;;;;;;37.73;29.31;101000.28;5028746;28;20388;-70
2022/06/23 08:52:38;;;;;;;12.82;7.32;;;;;;;38.04;30.21;101003.81;5028967;28;20107;-71
2022/06/23 08:55:25;;;;;;;13.18;7.40;;;;;;;37.85;28.28;101002.78;5028936;28;20457;-70
2022/06/23 08:57:57;;;;;;;13.75;7.55;;;;;;;37.79;28.31;100998.75;5029068;28;20044;-70
2022/06/23 09:00:48;;;;;;;22.45;7.05;;;;;;;37.79;30.71;101003.53;5028981;28;20072;-70
2022/06/23 09:03:19;;;;;;;12.63;6.67;;;;;;;38.13;28.12;100991.19;5028903;28;20072;-70
2022/06/23 09:06:14;;;;;;;15.60;7.95;;;;;;;38.58;30.50;100989.25;5028933;28;20036;-70
2022/06/23 09:09:08;;;;;;;12.07;6.57;;;;;;;37.05;30.01;100994.56;5028938;28;20183;-71
2022/06/23 09:12:18;;;;;;;15.93;6.43;;;;;;;34.55;35.75;100984.56;5027436;28;20431;-70
2022/06/23 09:15:14;;;;;;;13.98;6.68;;;;;;;32.46;38.35;100987.72;5022910;28;20147;-70
2022/06/23 09:18:00;;;;;;;12.40;6.13;;;;;;;31.21;41.62;100980.31;5026723;28;20029;-70
2022/06/23 09:20:29;;;;;;;11.82;6.35;;;;;;;30.29;41.21;100978.88;5028835;28;20323;-70
2022/06/23 09:23:37;;;;;;;13.32;6.90;;;;;;;29.63;42.14;100976.28;5028757;28;20025;-70
2022/06/23 09:26:15;;;;;;;13.02;6.53;;;;;;;29.14;44.62;100981.03;5027783;28;20056;-70
2022/06/23 09:28:56;;;;;;;14.57;7.05;;;;;;;28.84;45.21;100983.47;5028338;28;20151;-70
2022/06/23 09:32:03;;;;;;;15.95;6.65;;;;;;;28.60;46.46;100972.88;5031487;28;20140;-70
2022/06/23 09:34:47;;;;;;;12.43;6.38;;;;;;;28.38;46.90;100965.47;5030185;28;20029;-70
2022/06/23 09:37:49;;;;;;;10.52;6.05;;;;;;;28.29;47.10;100972.81;5031966;28;20104;-70
2022/06/23 09:40:20;;;;;;;10.32;5.65;;;;;;;28.15;48.40;100967.41;5031974;28;20087;-70
2022/06/23 09:43:13;;;;;;;15.43;6.45;;;;;;;28.14;48.96;100970.50;5031928;28;20033;-70
2022/06/23 09:46:06;;;;;;;12.48;7.20;;;;;;;28.15;48.50;100972.09;5031834;28;20052;-70
2022/06/23 09:48:46;;;;;;;17.30;6.80;;;;;;;28.17;47.99;100950.66;5031911;28;20263;-70
2022/06/23 09:51:20;;;;;;;11.95;6.38;;;;;;;28.17;48.27;100956.16;5031454;28;20041;-70
2022/06/23 09:54:15;;;;;;;11.50;6.20;;;;;;;28.24;50.25;100953.75;5031827;28;20542;-70
2022/06/23 09:56:43;;;;;;;12.43;4.63;;;;;;;28.28;48.57;100954.75;5031357;28;20396;-70
2022/06/23 09:59:26;;;;;;;8.27;4.07;;;;;;;28.25;47.83;100951.84;5031761;28;20544;-70
2022/06/23 10:02:14;;;;;;;12.95;5.00;;;;;;;28.26;49.13;100956.19;5031584;28;20032;-70
2022/06/23 10:04:53;;;;;;;12.60;5.50;;;;;;;28.17;48.64;100945.97;5031647;28;20032;-70
2022/06/23 10:07:55;;;;;;;7.30;3.97;;;;;;;28.23;48.17;100954.88;5031672;28;20029;-70
2022/06/23 10:10:30;;;;;;;8.13;3.90;;;;;;;28.38;49.27;100949.00;5031673;28;20026;-70
2022/06/23 10:13:04;;;;;;;8.40;3.80;;;;;;;28.42;50.56;100949.97;5031529;28;20448;-70
2022/06/23 10:16:00;;;;;;;9.15;3.75;;;;;;;28.49;48.35;100944.09;5031050;28;20495;-70
2022/06/23 10:18:26;;;;;;;11.77;3.63;;;;;;;28.62;48.00;100940.44;5031048;28;20061;-71
2022/06/23 10:21:01;;;;;;;5.23;3.20;;;;;;;28.71;46.98;100945.94;5031356;28;20060;-71
2022/06/23 10:24:04;;;;;;;8.93;3.85;;;;;;;28.75;47.16;100946.16;5031251;28;20260;-72
2022/06/23 10:27:00;;;;;;;13.77;3.47;;;;;;;28.80;48.95;100943.25;5019747;28;20068;-71
2022/06/23 10:29:50;;;;;;;9.80;3.60;;;;;;;28.83;48.66;100939.88;5030863;28;20029;-71
2022/06/23 10:32:37;;;;;;;12.43;3.83;;;;;;;28.77;48.01;100941.16;5030864;28;20033;-71
2022/06/23 10:35:20;;;;;;;10.15;3.28;;;;;;;28.89;48.63;100941.34;5030992;28;20057;-71
2022/06/23 10:38:13;;;;;;;9.63;3.95;;;;;;;29.01;47.79;100935.25;5031103;28;20465;-71
2022/06/23 10:40:38;;;;;;;5.93;3.40;;;;;;;29.02;46.87;100936.84;5030832;28;20032;-71
2022/06/23 10:43:28;;;;;;;14.43;3.60;;;;;;;29.03;47.28;100938.50;5030341;28;20033;-71
2022/06/23 10:46:17;;;;;;;7.20;3.67;;;;;;;29.07;48.00;100927.69;5030960;28;20291;-71
2022/06/23 10:49:01;;;;;;;10.10;3.92;;;;;;;29.02;48.14;100931.38;5030765;28;20417;-71
2022/06/23 10:51:32;;;;;;;9.68;4.03;;;;;;;28.96;46.70;100932.66;5030421;28;20053;-71
2022/06/23 10:54:00;;;;;;;7.43;4.05;;;;;;;28.96;48.83;100916.97;5030698;28;20552;-71
2022/06/23 10:57:07;;;;;;;11.90;4.03;;;;;;;29.10;48.71;100914.13;5030808;28;20057;-72
2022/06/23 10:59:38;;;;;;;11.00;4.70;;;;;;;29.22;48.92;100917.06;5030612;28;20520;-70
2022/06/23 11:02:29;;;;;;;19.92;6.60;;;;;;;29.27;49.78;100911.41;5030075;28;20039;-71
2022/06/23 11:05:16;;;;;;;9.90;3.95;;;;;;;29.37;48.20;100921.28;5029563;28;20053;-71
2022/06/23 11:07:53;;;;;;;13.40;5.28;;;;;;;29.15;49.11;100913.97;5029449;28;20108;-70
2022/06/23 11:10:39;;;;;;;9.00;4.35;;;;;;;29.16;49.63;100904.63;5029456;28;20041;-71
2022/06/23 11:13:11;;;;;;;11.45;5.25;;;;;;;29.16;47.50;100912.03;5029601;28;20022;-71
2022/06/23 11:15:59;;;;;;;14.68;5.72;;;;;;;29.04;50.24;100916.22;5030082;28;20052;-71
2022/06/23 11:18:42;;;;;;;14.05;4.82;;;;;;;29.22;48.94;100906.06;5030297;28;20037;-71
2022/06/23 11:21:26;;;;;;;9.38;4.00;;;;;;;29.44;48.33;100910.59;5030258;28;20040;-71
2022/06/23 11:24:15;;;;;;;12.00;3.85;;;;;;;29.65;48.91;100901.75;5030189;28;20525;-71
2022/06/23 11:27:07;;;;;;;10.48;4.38;;;;;;;29.69;47.25;100906.28;5029715;28;20021;-69
2022/06/23 11:29:57;;;;;;;8.43;5.07;;;;;;;29.65;46.89;100908.03;5029209;28;20080;-69
2022/06/23 11:32:38;;;;;;;17.80;6.57;;;;;;;29.64;47.46;100903.69;5029514;28;20094;-70
2022/06/23 11:35:23;;;;;;;12.57;4.82;;;;;;;29.70;47.35;100907.06;5029549;28;20033;-69
2022/06/23 11:38:10;;;;;;;11.60;4.88;;;;;;;29.78;48.59;100902.69;5029726;28;20029;-69
2022/06/23 11:40:38;;;;;;;10.82;5.93;;;;;;;29.80;46.84;100901.25;5029816;28;20057;-69
2022/06/23 11:43:09;;;;;;;12.38;5.50;;;;;;;29.78;45.33;100892.50;5029793;28;20481;-69
2022/06/23 11:45:48;;;;;;;9.95;5.32;;;;;;;29.65;48.38;100888.00;5029501;28;20061;-69
2022/06/23 11:48:41;;;;;;;9.60;4.85;;;;;;;29.68;48.16;100899.16;5029594;28;20545;-69
2022/06/23 11:51:44;;;;;;;15.18;5.18;;;;;;;29.73;48.02;100900.91;5029199;28;20049;-69
2022/06/23 11:54:35;;;;;;;14.10;5.85;;;;;;;29.81;46.03;100905.59;5028301;28;20514;-69
2022/06/23 11:57:25;;;;;;;8.15;4.55;;;;;;;29.72;46.53;100893.00;5029209;28;20052;-69
2022/06/23 12:00:09;;;;;;;10.77;4.90;;;;;;;29.57;45.95;100883.28;5029276;28;20116;-69
2022/06/23 12:03:09;;;;;;;10.30;5.30;;;;;;;29.60;47.69;100879.88;5029195;28;20116;-69
2022/06/23 12:05:57;;;;;;;12.90;4.47;;;;;;;29.59;46.36;100881.81;5029054;28;20025;-69
2022/06/23 12:08:27;;;;;;;7.90;4.30;;;;;;;29.24;48.82;100879.09;5028960;28;20029;-69
2022/06/23 12:10:52;;;;;;;10.55;4.72;;;;;;;29.31;48.58;100875.84;5028986;28;20037;-69
2022/06/23 12:13:18;;;;;;;12.43;4.85;;;;;;;29.61;47.38;100874.06;5028997;28;20480;-68
2022/06/23 12:15:47;;;;;;;14.77;4.63;;;;;;;29.78;47.55;100877.97;5028937;28;20034;-69
2022/06/23 12:18:16;;;;;;;5.80;3.38;;;;;;;29.79;44.52;100877.63;5029279;28;20377;-69
2022/06/23 12:20:51;;;;;;;8.48;4.50;;;;;;;29.94;45.74;100881.78;5028840;28;20461;-68
2022/06/23 12:23:16;;;;;;;9.50;4.07;;;;;;;30.15;43.30;100884.66;5028709;28;20083;-69